Koun Maru — JK5556 — position and weather

sailwx.info

Track history (hours):
 
Tides and Currents Weather Stations Pressure Air Temp Water Temp Dewpoint Dewpoint Depression Visibility Wind Speed Wind Dir Waves Ship Positions

Koun Maru

Last reported at 2017-Oct-13 05:26 UTC. Time now 2017-Oct-17 08:04 UTC.
Position N 34°10' E 135°07'.

Length 40 m.

Type: Tanker. MMSI: 431401871.

Date/timePositionNaut miles runAvg speedWind from/ knotsBaromVisibWave heightAir tempDewpointWater temp
2017-Oct-13 05:26N 34°10' E 135°07'3 6.5
2017-Oct-13 04:58N 34°13' E 135°09'0 0.0
2017-Oct-13 04:27N 34°13' E 135°09'0 0.0
2017-Oct-13 03:59N 34°13' E 135°09'0 0.4
2017-Oct-13 03:26N 34°13' E 135°08'3 6.7
2017-Oct-13 03:00N 34°14' E 135°05'26 0.5
2017-Oct-10 23:59N 34°40' E 135°12'0 0.0
2017-Oct-10 23:29N 34°40' E 135°12'0 0.0
2017-Oct-10 22:57N 34°40' E 135°12'0 0.0
2017-Oct-10 22:30N 34°40' E 135°12'0 0.0
2017-Oct-10 21:52N 34°40' E 135°12'0 0.0
2017-Oct-10 21:28N 34°40' E 135°12'0 0.0
2017-Oct-10 20:58N 34°40' E 135°12'0 0.0
2017-Oct-10 20:28N 34°40' E 135°12'0 0.0
2017-Oct-10 19:58N 34°40' E 135°12'0 0.1
2017-Oct-10 19:28N 34°40' E 135°12'0 0.0
2017-Oct-10 18:55N 34°40' E 135°12'0 0.0
2017-Oct-10 18:30N 34°40' E 135°12'0 0.0
2017-Oct-10 18:00N 34°40' E 135°12'0 0.0
2017-Oct-10 17:30N 34°40' E 135°12'0 0.0
2017-Oct-10 16:43N 34°40' E 135°12'0 0.0
2017-Oct-10 16:24N 34°40' E 135°12'0 0.0
2017-Oct-10 15:55N 34°40' E 135°12'0 0.0
2017-Oct-10 15:31N 34°40' E 135°12'0 0.0
2017-Oct-10 14:55N 34°40' E 135°12'0 0.0
2017-Oct-10 13:55N 34°40' E 135°12'0 0.1
2017-Oct-10 13:13N 34°40' E 135°12'0 0.0
2017-Oct-10 12:55N 34°40' E 135°12'0 0.0
2017-Oct-10 12:25N 34°40' E 135°12'0 0.0
2017-Oct-10 11:55N 34°40' E 135°12'0 0.1
2017-Oct-10 11:28N 34°40' E 135°12'2 4.3
2017-Oct-10 11:00N 34°38' E 135°10'  
2017-Oct-08 06:54N 34°37' E 135°08'4 9.1
2017-Oct-08 06:30N 34°36' E 135°12'7 1.6
2017-Oct-08 02:23N 34°37' E 135°20'410.2
2017-Oct-08 01:59N 34°41' E 135°18'2 2.9
2017-Oct-08 01:27N 34°42' E 135°17'0 0.0
2017-Oct-08 00:57N 34°42' E 135°17'0 0.0
2017-Oct-08 00:27N 34°42' E 135°17'0 0.0
2017-Oct-07 23:03N 34°42' E 135°17'0 0.1
2017-Oct-07 22:57N 34°42' E 135°17'4 7.7
2017-Oct-07 22:29N 34°41' E 135°21'5 9.3
2017-Oct-07 21:58N 34°39' E 135°26'35 0.8
2017-Oct-06 02:09N 34°08' E 135°07'2 8.2
2017-Oct-06 01:55N 34°09' E 135°06'31 9.2
2017-Oct-05 22:35N 34°36' E 135°25'3 0.2
2017-Oct-05 04:07N 34°39' E 135°25'2 0.1
2017-Oct-04 03:21N 34°38' E 135°23'  
Track history (hours):
 
Tides and Currents Weather Stations Pressure Air Temp Water Temp Dewpoint Dewpoint Depression Visibility Wind Speed Wind Dir Waves Ship Positions

Koun Maru

Last reported at 2017-Oct-13 05:26 UTC. Time now 2017-Oct-17 08:04 UTC.
Position N 34°10' E 135°07'.

Length 40 m.

Type: Tanker. MMSI: 431401871.

Date/timePositionNaut miles runAvg speedWind from/ knotsBaromVisibWave heightAir tempDewpointWater temp
2017-Oct-13 05:26N 34°10' E 135°07'3 6.5
2017-Oct-13 04:58N 34°13' E 135°09'0 0.0
2017-Oct-13 04:27N 34°13' E 135°09'0 0.0
2017-Oct-13 03:59N 34°13' E 135°09'0 0.4
2017-Oct-13 03:26N 34°13' E 135°08'3 6.7
2017-Oct-13 03:00N 34°14' E 135°05'26 0.5
2017-Oct-10 23:59N 34°40' E 135°12'0 0.0
2017-Oct-10 23:29N 34°40' E 135°12'0 0.0
2017-Oct-10 22:57N 34°40' E 135°12'0 0.0
2017-Oct-10 22:30N 34°40' E 135°12'0 0.0
2017-Oct-10 21:52N 34°40' E 135°12'0 0.0
2017-Oct-10 21:28N 34°40' E 135°12'0 0.0
2017-Oct-10 20:58N 34°40' E 135°12'0 0.0
2017-Oct-10 20:28N 34°40' E 135°12'0 0.0
2017-Oct-10 19:58N 34°40' E 135°12'0 0.1
2017-Oct-10 19:28N 34°40' E 135°12'0 0.0
2017-Oct-10 18:55N 34°40' E 135°12'0 0.0
2017-Oct-10 18:30N 34°40' E 135°12'0 0.0
2017-Oct-10 18:00N 34°40' E 135°12'0 0.0
2017-Oct-10 17:30N 34°40' E 135°12'0 0.0
2017-Oct-10 16:43N 34°40' E 135°12'0 0.0
2017-Oct-10 16:24N 34°40' E 135°12'0 0.0
2017-Oct-10 15:55N 34°40' E 135°12'0 0.0
2017-Oct-10 15:31N 34°40' E 135°12'0 0.0
2017-Oct-10 14:55N 34°40' E 135°12'0 0.0
2017-Oct-10 13:55N 34°40' E 135°12'0 0.1
2017-Oct-10 13:13N 34°40' E 135°12'0 0.0
2017-Oct-10 12:55N 34°40' E 135°12'0 0.0
2017-Oct-10 12:25N 34°40' E 135°12'0 0.0
2017-Oct-10 11:55N 34°40' E 135°12'0 0.1
2017-Oct-10 11:28N 34°40' E 135°12'2 4.3
2017-Oct-10 11:00N 34°38' E 135°10'  
2017-Oct-08 06:54N 34°37' E 135°08'4 9.1
2017-Oct-08 06:30N 34°36' E 135°12'7 1.6
2017-Oct-08 02:23N 34°37' E 135°20'410.2
2017-Oct-08 01:59N 34°41' E 135°18'2 2.9
2017-Oct-08 01:27N 34°42' E 135°17'0 0.0
2017-Oct-08 00:57N 34°42' E 135°17'0 0.0
2017-Oct-08 00:27N 34°42' E 135°17'0 0.0
2017-Oct-07 23:03N 34°42' E 135°17'0 0.1
2017-Oct-07 22:57N 34°42' E 135°17'4 7.7
2017-Oct-07 22:29N 34°41' E 135°21'5 9.3
2017-Oct-07 21:58N 34°39' E 135°26'35 0.8
2017-Oct-06 02:09N 34°08' E 135°07'2 8.2
2017-Oct-06 01:55N 34°09' E 135°06'31 9.2
2017-Oct-05 22:35N 34°36' E 135°25'3 0.2
2017-Oct-05 04:07N 34°39' E 135°25'2 0.1
2017-Oct-04 03:21N 34°38' E 135°23'  

Dump ship's entire track history